sensor_id;sensor_type;location;lat;lon;timestamp;temperature;humidity
13496;DHT22;6820;49.374;8.452;2023-02-15T00:03:07;3.15;99.99
13496;DHT22;6820;49.374;8.452;2023-02-15T00:07:08;3.15;99.99
13496;DHT22;6820;49.374;8.452;2023-02-15T00:11:11;3.17;99.99
13496;DHT22;6820;49.374;8.452;2023-02-15T00:15:17;3.16;99.99
13496;DHT22;6820;49.374;8.452;2023-02-15T00:19:19;3.16;99.99
13496;DHT22;6820;49.374;8.452;2023-02-15T00:23:21;3.15;99.99
13496;DHT22;6820;49.374;8.452;2023-02-15T00:27:23;3.12;99.99
13496;DHT22;6820;49.374;8.452;2023-02-15T00:31:25;3.16;99.99
13496;DHT22;6820;49.374;8.452;2023-02-15T00:35:29;3.17;99.99
13496;DHT22;6820;49.374;8.452;2023-02-15T00:39:31;3.13;99.99
13496;DHT22;6820;49.374;8.452;2023-02-15T00:43:33;3.19;99.99
13496;DHT22;6820;49.374;8.452;2023-02-15T00:47:35;3.20;99.99
13496;DHT22;6820;49.374;8.452;2023-02-15T00:51:37;3.16;99.99
13496;DHT22;6820;49.374;8.452;2023-02-15T00:55:39;3.16;99.99
13496;DHT22;6820;49.374;8.452;2023-02-15T00:59:41;3.12;99.99
13496;DHT22;6820;49.374;8.452;2023-02-15T01:03:43;3.13;99.99
13496;DHT22;6820;49.374;8.452;2023-02-15T01:07:44;3.13;99.99
13496;DHT22;6820;49.374;8.452;2023-02-15T01:11:46;3.12;99.99
13496;DHT22;6820;49.374;8.452;2023-02-15T01:15:54;3.08;99.99
13496;DHT22;6820;49.374;8.452;2023-02-15T01:19:56;3.10;99.99
13496;DHT22;6820;49.374;8.452;2023-02-15T01:23:58;3.13;99.99
13496;DHT22;6820;49.374;8.452;2023-02-15T01:28:00;3.15;99.99
13496;DHT22;6820;49.374;8.452;2023-02-15T01:32:02;3.12;99.99
13496;DHT22;6820;49.374;8.452;2023-02-15T01:36:04;3.10;99.99
13496;DHT22;6820;49.374;8.452;2023-02-15T01:40:07;3.08;99.99
13496;DHT22;6820;49.374;8.452;2023-02-15T01:48:57;3.13;99.99
13496;DHT22;6820;49.374;8.452;2023-02-15T01:53:06;3.04;99.99
13496;DHT22;6820;49.374;8.452;2023-02-15T01:57:10;3.01;99.99
13496;DHT22;6820;49.374;8.452;2023-02-15T02:01:15;3.02;99.99
13496;DHT22;6820;49.374;8.452;2023-02-15T02:05:16;3.05;99.99
13496;DHT22;6820;49.374;8.452;2023-02-15T02:09:18;3.04;99.99
13496;DHT22;6820;49.374;8.452;2023-02-15T02:13:20;3.08;99.99
13496;DHT22;6820;49.374;8.452;2023-02-15T02:17:24;3.10;99.99
13496;DHT22;6820;49.374;8.452;2023-02-15T02:21:44;3.08;99.99
13496;DHT22;6820;49.374;8.452;2023-02-15T02:39:07;3.08;99.99
13496;DHT22;6820;49.374;8.452;2023-02-15T02:43:33;3.10;99.99
13496;DHT22;6820;49.374;8.452;2023-02-15T02:47:43;3.16;99.99
13496;DHT22;6820;49.374;8.452;2023-02-15T02:51:57;3.16;99.99
13496;DHT22;6820;49.374;8.452;2023-02-15T02:56:09;3.19;99.99
13496;DHT22;6820;49.374;8.452;2023-02-15T03:00:21;3.19;99.99
13496;DHT22;6820;49.374;8.452;2023-02-15T03:04:28;3.20;99.99
13496;DHT22;6820;49.374;8.452;2023-02-15T03:08:37;3.17;99.99
13496;DHT22;6820;49.374;8.452;2023-02-15T03:12:44;3.17;99.99
13496;DHT22;6820;49.374;8.452;2023-02-15T03:16:47;3.16;99.99
13496;DHT22;6820;49.374;8.452;2023-02-15T03:20:50;3.17;99.99
13496;DHT22;6820;49.374;8.452;2023-02-15T03:24:56;3.19;99.99
13496;DHT22;6820;49.374;8.452;2023-02-15T03:29:01;3.19;99.99
13496;DHT22;6820;49.374;8.452;2023-02-15T03:33:05;3.20;99.99
13496;DHT22;6820;49.374;8.452;2023-02-15T03:41:42;3.17;99.99
13496;DHT22;6820;49.374;8.452;2023-02-15T03:45:51;3.20;99.99
13496;DHT22;6820;49.374;8.452;2023-02-15T03:50:00;3.19;99.99
13496;DHT22;6820;49.374;8.452;2023-02-15T03:54:15;3.22;99.99
13496;DHT22;6820;49.374;8.452;2023-02-15T03:58:40;3.22;99.99
13496;DHT22;6820;49.374;8.452;2023-02-15T04:07:21;3.20;99.99
13496;DHT22;6820;49.374;8.452;2023-02-15T04:11:23;3.22;99.99
13496;DHT22;6820;49.374;8.452;2023-02-15T04:15:24;3.22;99.99
13496;DHT22;6820;49.374;8.452;2023-02-15T04:19:44;3.17;99.99
13496;DHT22;6820;49.374;8.452;2023-02-15T04:24:05;3.17;99.99
13496;DHT22;6820;49.374;8.452;2023-02-15T04:28:25;3.15;99.99
13496;DHT22;6820;49.374;8.452;2023-02-15T04:32:27;3.16;99.99
13496;DHT22;6820;49.374;8.452;2023-02-15T04:36:28;3.19;99.99
13496;DHT22;6820;49.374;8.452;2023-02-15T04:40:30;3.19;99.99
13496;DHT22;6820;49.374;8.452;2023-02-15T04:44:32;3.19;99.99
13496;DHT22;6820;49.374;8.452;2023-02-15T04:48:33;3.16;99.99
13496;DHT22;6820;49.374;8.452;2023-02-15T04:52:35;3.20;99.99
13496;DHT22;6820;49.374;8.452;2023-02-15T04:56:37;3.16;99.99
13496;DHT22;6820;49.374;8.452;2023-02-15T05:00:40;3.20;99.99
13496;DHT22;6820;49.374;8.452;2023-02-15T05:04:41;3.20;99.99
13496;DHT22;6820;49.374;8.452;2023-02-15T05:08:43;3.19;99.99
13496;DHT22;6820;49.374;8.452;2023-02-15T05:12:44;3.17;99.99
13496;DHT22;6820;49.374;8.452;2023-02-15T05:16:46;3.20;99.99
13496;DHT22;6820;49.374;8.452;2023-02-15T05:20:48;3.16;99.99
13496;DHT22;6820;49.374;8.452;2023-02-15T05:24:50;3.16;99.99
13496;DHT22;6820;49.374;8.452;2023-02-15T05:29:10;3.19;99.99
13496;DHT22;6820;49.374;8.452;2023-02-15T05:33:12;3.19;99.99
13496;DHT22;6820;49.374;8.452;2023-02-15T05:37:13;3.17;99.99
13496;DHT22;6820;49.374;8.452;2023-02-15T05:41:15;3.16;99.99
13496;DHT22;6820;49.374;8.452;2023-02-15T05:45:16;3.20;99.99
13496;DHT22;6820;49.374;8.452;2023-02-15T05:49:18;3.23;99.99
13496;DHT22;6820;49.374;8.452;2023-02-15T05:53:20;3.13;99.99
13496;DHT22;6820;49.374;8.452;2023-02-15T05:57:21;3.17;99.99
13496;DHT22;6820;49.374;8.452;2023-02-15T06:01:23;3.13;99.99
13496;DHT22;6820;49.374;8.452;2023-02-15T06:05:24;3.13;99.99
13496;DHT22;6820;49.374;8.452;2023-02-15T06:09:26;3.12;99.99
13496;DHT22;6820;49.374;8.452;2023-02-15T06:13:28;3.12;99.99
13496;DHT22;6820;49.374;8.452;2023-02-15T06:17:30;3.05;99.99
13496;DHT22;6820;49.374;8.452;2023-02-15T06:21:31;3.02;99.99
13496;DHT22;6820;49.374;8.452;2023-02-15T06:25:33;3.05;99.99
13496;DHT22;6820;49.374;8.452;2023-02-15T06:29:37;3.05;99.99
13496;DHT22;6820;49.374;8.452;2023-02-15T06:33:38;2.98;99.99
13496;DHT22;6820;49.374;8.452;2023-02-15T06:37:40;2.95;99.99
13496;DHT22;6820;49.374;8.452;2023-02-15T06:41:42;2.98;99.99
13496;DHT22;6820;49.374;8.452;2023-02-15T06:45:43;2.92;99.99
13496;DHT22;6820;49.374;8.452;2023-02-15T06:49:45;2.89;99.99
13496;DHT22;6820;49.374;8.452;2023-02-15T06:53:47;2.86;99.99
13496;DHT22;6820;49.374;8.452;2023-02-15T06:57:48;2.84;99.99
13496;DHT22;6820;49.374;8.452;2023-02-15T07:01:51;2.83;99.99
13496;DHT22;6820;49.374;8.452;2023-02-15T07:05:56;2.83;99.99
13496;DHT22;6820;49.374;8.452;2023-02-15T07:09:59;2.83;99.99
13496;DHT22;6820;49.374;8.452;2023-02-15T07:14:00;2.84;99.99
13496;DHT22;6820;49.374;8.452;2023-02-15T07:18:02;2.86;99.99
13496;DHT22;6820;49.374;8.452;2023-02-15T07:22:04;2.89;99.99
13496;DHT22;6820;49.374;8.452;2023-02-15T07:26:06;2.84;99.99
13496;DHT22;6820;49.374;8.452;2023-02-15T07:30:09;2.90;99.99
13496;DHT22;6820;49.374;8.452;2023-02-15T07:34:12;2.95;99.99
13496;DHT22;6820;49.374;8.452;2023-02-15T07:38:14;2.94;99.99
13496;DHT22;6820;49.374;8.452;2023-02-15T07:42:16;2.90;99.99
13496;DHT22;6820;49.374;8.452;2023-02-15T07:46:20;2.89;99.99
13496;DHT22;6820;49.374;8.452;2023-02-15T07:50:22;2.92;99.99
13496;DHT22;6820;49.374;8.452;2023-02-15T07:54:23;2.92;99.99
13496;DHT22;6820;49.374;8.452;2023-02-15T07:58:25;2.92;99.99
13496;DHT22;6820;49.374;8.452;2023-02-15T08:02:47;2.92;99.99
13496;DHT22;6820;49.374;8.452;2023-02-15T08:07:10;2.90;99.99
13496;DHT22;6820;49.374;8.452;2023-02-15T08:15:34;2.94;99.99
13496;DHT22;6820;49.374;8.452;2023-02-15T08:19:36;2.97;99.99
13496;DHT22;6820;49.374;8.452;2023-02-15T08:23:37;2.98;99.99
13496;DHT22;6820;49.374;8.452;2023-02-15T08:27:39;2.99;99.99
13496;DHT22;6820;49.374;8.452;2023-02-15T08:31:41;2.95;99.99
13496;DHT22;6820;49.374;8.452;2023-02-15T08:35:43;2.95;99.99
13496;DHT22;6820;49.374;8.452;2023-02-15T08:39:44;2.80;99.99
13496;DHT22;6820;49.374;8.452;2023-02-15T08:43:48;2.92;99.99
13496;DHT22;6820;49.374;8.452;2023-02-15T08:47:54;2.94;99.99
13496;DHT22;6820;49.374;8.452;2023-02-15T08:51:56;2.94;99.99
13496;DHT22;6820;49.374;8.452;2023-02-15T08:55:58;2.87;99.99
13496;DHT22;6820;49.374;8.452;2023-02-15T09:00:00;2.87;99.99
13496;DHT22;6820;49.374;8.452;2023-02-15T09:04:04;2.87;99.99
13496;DHT22;6820;49.374;8.452;2023-02-15T09:08:09;2.89;99.99
13496;DHT22;6820;49.374;8.452;2023-02-15T09:12:11;2.90;99.99
13496;DHT22;6820;49.374;8.452;2023-02-15T09:16:12;2.97;99.99
13496;DHT22;6820;49.374;8.452;2023-02-15T09:20:14;3.02;99.99
13496;DHT22;6820;49.374;8.452;2023-02-15T09:24:16;3.02;99.99
13496;DHT22;6820;49.374;8.452;2023-02-15T09:28:18;3.01;99.99
13496;DHT22;6820;49.374;8.452;2023-02-15T09:32:20;3.02;99.99
13496;DHT22;6820;49.374;8.452;2023-02-15T09:36:24;2.95;99.99
13496;DHT22;6820;49.374;8.452;2023-02-15T09:40:27;2.94;99.99
13496;DHT22;6820;49.374;8.452;2023-02-15T09:48:56;2.97;99.99
13496;DHT22;6820;49.374;8.452;2023-02-15T09:53:21;3.01;99.99
13496;DHT22;6820;49.374;8.452;2023-02-15T10:01:37;3.04;99.99
13496;DHT22;6820;49.374;8.452;2023-02-15T10:06:09;2.99;99.99
13496;DHT22;6820;49.374;8.452;2023-02-15T10:19:09;3.08;99.99
13496;DHT22;6820;49.374;8.452;2023-02-15T10:27:45;3.22;99.99
13496;DHT22;6820;49.374;8.452;2023-02-15T10:31:50;3.30;99.99
13496;DHT22;6820;49.374;8.452;2023-02-15T10:36:05;3.35;99.99
13496;DHT22;6820;49.374;8.452;2023-02-15T10:57:48;3.62;99.99
13496;DHT22;6820;49.374;8.452;2023-02-15T11:06:09;3.59;99.99
13496;DHT22;6820;49.374;8.452;2023-02-15T11:18:59;3.68;99.99
13496;DHT22;6820;49.374;8.452;2023-02-15T11:23:09;3.68;99.99
13496;DHT22;6820;49.374;8.452;2023-02-15T11:31:24;3.80;99.99
13496;DHT22;6820;49.374;8.452;2023-02-15T11:35:29;3.80;99.99
13496;DHT22;6820;49.374;8.452;2023-02-15T11:39:45;3.86;99.99
13496;DHT22;6820;49.374;8.452;2023-02-15T11:44:06;3.98;99.99
13496;DHT22;6820;49.374;8.452;2023-02-15T11:48:17;4.02;99.99
13496;DHT22;6820;49.374;8.452;2023-02-15T11:52:19;4.07;99.99
13496;DHT22;6820;49.374;8.452;2023-02-15T11:56:24;4.06;99.99
13496;DHT22;6820;49.374;8.452;2023-02-15T12:04:38;4.02;99.99
13496;DHT22;6820;49.374;8.452;2023-02-15T12:08:50;4.02;99.99
13496;DHT22;6820;49.374;8.452;2023-02-15T12:17:18;4.21;99.99
13496;DHT22;6820;49.374;8.452;2023-02-15T12:21:27;4.24;99.99
13496;DHT22;6820;49.374;8.452;2023-02-15T12:25:41;4.31;99.99
13496;DHT22;6820;49.374;8.452;2023-02-15T12:29:47;4.34;99.99
13496;DHT22;6820;49.374;8.452;2023-02-15T12:33:53;4.35;99.99
13496;DHT22;6820;49.374;8.452;2023-02-15T12:38:32;4.36;99.99
13496;DHT22;6820;49.374;8.452;2023-02-15T12:42:27;4.18;99.99
13496;DHT22;6820;49.374;8.452;2023-02-15T12:46:41;4.34;99.99
13496;DHT22;6820;49.374;8.452;2023-02-15T12:50:45;4.36;99.99
13496;DHT22;6820;49.374;8.452;2023-02-15T12:54:55;4.38;99.99
13496;DHT22;6820;49.374;8.452;2023-02-15T12:59:23;4.44;99.99
13496;DHT22;6820;49.374;8.452;2023-02-15T13:03:25;4.42;99.99
13496;DHT22;6820;49.374;8.452;2023-02-15T13:07:29;4.38;99.99
13496;DHT22;6820;49.374;8.452;2023-02-15T13:11:32;4.49;99.99
13496;DHT22;6820;49.374;8.452;2023-02-15T13:15:36;4.47;99.99
13496;DHT22;6820;49.374;8.452;2023-02-15T13:23:44;4.47;99.99
13496;DHT22;6820;49.374;8.452;2023-02-15T13:27:54;4.54;99.99
13496;DHT22;6820;49.374;8.452;2023-02-15T13:32:00;4.57;99.99
13496;DHT22;6820;49.374;8.452;2023-02-15T13:40:53;4.54;99.99
13496;DHT22;6820;49.374;8.452;2023-02-15T13:45:07;4.51;99.99
13496;DHT22;6820;49.374;8.452;2023-02-15T13:49:39;4.53;99.99
13496;DHT22;6820;49.374;8.452;2023-02-15T14:07:08;4.65;99.99
13496;DHT22;6820;49.374;8.452;2023-02-15T14:16:20;4.83;99.99
13496;DHT22;6820;49.374;8.452;2023-02-15T14:33:54;4.86;99.99
13496;DHT22;6820;49.374;8.452;2023-02-15T14:38:02;4.77;99.99
13496;DHT22;6820;49.374;8.452;2023-02-15T14:42:23;4.83;99.99
13496;DHT22;6820;49.374;8.452;2023-02-15T14:46:34;4.91;99.99
13496;DHT22;6820;49.374;8.452;2023-02-15T14:50:45;4.99;99.99
13496;DHT22;6820;49.374;8.452;2023-02-15T15:02:51;4.86;99.99
13496;DHT22;6820;49.374;8.452;2023-02-15T15:15:46;4.99;99.99
13496;DHT22;6820;49.374;8.452;2023-02-15T15:23:53;4.79;99.99
13496;DHT22;6820;49.374;8.452;2023-02-15T15:27:54;4.71;99.99
13496;DHT22;6820;49.374;8.452;2023-02-15T15:31:56;4.54;99.99
13496;DHT22;6820;49.374;8.452;2023-02-15T15:48:51;4.18;99.99
13496;DHT22;6820;49.374;8.452;2023-02-15T15:52:54;4.08;99.99
13496;DHT22;6820;49.374;8.452;2023-02-15T15:57:03;3.95;99.99
13496;DHT22;6820;49.374;8.452;2023-02-15T16:01:07;3.90;99.99
13496;DHT22;6820;49.374;8.452;2023-02-15T16:05:11;3.81;99.99
13496;DHT22;6820;49.374;8.452;2023-02-15T16:09:18;3.72;99.99
13496;DHT22;6820;49.374;8.452;2023-02-15T16:13:21;3.63;99.99
13496;DHT22;6820;49.374;8.452;2023-02-15T16:17:29;3.56;99.99
13496;DHT22;6820;49.374;8.452;2023-02-15T16:21:34;3.53;99.99
13496;DHT22;6820;49.374;8.452;2023-02-15T16:29:47;3.39;99.99
13496;DHT22;6820;49.374;8.452;2023-02-15T16:33:51;3.33;99.99
13496;DHT22;6820;49.374;8.452;2023-02-15T16:37:54;3.26;99.99
13496;DHT22;6820;49.374;8.452;2023-02-15T16:41:55;3.22;99.99
13496;DHT22;6820;49.374;8.452;2023-02-15T16:46:04;3.12;99.99
13496;DHT22;6820;49.374;8.452;2023-02-15T16:50:16;3.13;99.99
13496;DHT22;6820;49.374;8.452;2023-02-15T16:54:20;3.15;99.99
13496;DHT22;6820;49.374;8.452;2023-02-15T16:58:45;3.13;99.99
13496;DHT22;6820;49.374;8.452;2023-02-15T17:03:21;3.10;99.99
13496;DHT22;6820;49.374;8.452;2023-02-15T17:07:18;3.08;99.99
13496;DHT22;6820;49.374;8.452;2023-02-15T17:11:22;3.05;99.99
13496;DHT22;6820;49.374;8.452;2023-02-15T17:15:35;3.04;99.99
13496;DHT22;6820;49.374;8.452;2023-02-15T17:23:50;2.95;99.99
13496;DHT22;6820;49.374;8.452;2023-02-15T17:27:53;2.92;99.99
13496;DHT22;6820;49.374;8.452;2023-02-15T17:31:57;2.84;99.99
13496;DHT22;6820;49.374;8.452;2023-02-15T17:40:21;2.77;99.99
13496;DHT22;6820;49.374;8.452;2023-02-15T17:44:25;2.74;99.99
13496;DHT22;6820;49.374;8.452;2023-02-15T17:48:36;2.66;99.99
13496;DHT22;6820;49.374;8.452;2023-02-15T17:52:40;2.66;99.99
13496;DHT22;6820;49.374;8.452;2023-02-15T17:56:42;2.65;99.99
13496;DHT22;6820;49.374;8.452;2023-02-15T18:00:44;2.61;99.99
13496;DHT22;6820;49.374;8.452;2023-02-15T18:05:16;2.56;99.99
13496;DHT22;6820;49.374;8.452;2023-02-15T18:09:36;2.50;99.99
13496;DHT22;6820;49.374;8.452;2023-02-15T18:13:56;2.43;99.99
13496;DHT22;6820;49.374;8.452;2023-02-15T18:18:01;2.38;99.99
13496;DHT22;6820;49.374;8.452;2023-02-15T18:22:16;2.38;99.99
13496;DHT22;6820;49.374;8.452;2023-02-15T18:26:20;2.40;99.99
13496;DHT22;6820;49.374;8.452;2023-02-15T18:30:24;2.38;99.99
13496;DHT22;6820;49.374;8.452;2023-02-15T18:34:28;2.37;99.99
13496;DHT22;6820;49.374;8.452;2023-02-15T18:38:33;2.37;99.99
13496;DHT22;6820;49.374;8.452;2023-02-15T18:42:34;2.36;99.99
13496;DHT22;6820;49.374;8.452;2023-02-15T18:46:36;2.33;99.99
13496;DHT22;6820;49.374;8.452;2023-02-15T18:50:38;2.27;99.99
13496;DHT22;6820;49.374;8.452;2023-02-15T18:54:40;2.26;99.99
13496;DHT22;6820;49.374;8.452;2023-02-15T18:58:42;2.25;99.99
13496;DHT22;6820;49.374;8.452;2023-02-15T19:02:47;2.20;99.99
13496;DHT22;6820;49.374;8.452;2023-02-15T19:06:48;2.18;99.99
13496;DHT22;6820;49.374;8.452;2023-02-15T19:10:50;2.18;99.99
13496;DHT22;6820;49.374;8.452;2023-02-15T19:14:52;2.14;99.99
13496;DHT22;6820;49.374;8.452;2023-02-15T19:18:53;2.12;99.99
13496;DHT22;6820;49.374;8.452;2023-02-15T19:22:55;2.12;99.99
13496;DHT22;6820;49.374;8.452;2023-02-15T19:27:00;2.11;99.99
13496;DHT22;6820;49.374;8.452;2023-02-15T19:31:02;2.09;99.99
13496;DHT22;6820;49.374;8.452;2023-02-15T19:35:04;2.05;99.99
13496;DHT22;6820;49.374;8.452;2023-02-15T19:39:07;2.07;99.99
13496;DHT22;6820;49.374;8.452;2023-02-15T19:43:23;2.04;99.99
13496;DHT22;6820;49.374;8.452;2023-02-15T19:47:26;2.01;99.99
13496;DHT22;6820;49.374;8.452;2023-02-15T19:51:28;2.00;99.99
13496;DHT22;6820;49.374;8.452;2023-02-15T19:55:31;1.83;99.99
13496;DHT22;6820;49.374;8.452;2023-02-15T19:59:34;1.72;99.99
13496;DHT22;6820;49.374;8.452;2023-02-15T20:03:35;1.77;99.99
13496;DHT22;6820;49.374;8.452;2023-02-15T20:07:37;1.71;99.99
13496;DHT22;6820;49.374;8.452;2023-02-15T20:11:39;1.70;99.99
13496;DHT22;6820;49.374;8.452;2023-02-15T20:15:40;1.70;99.99
13496;DHT22;6820;49.374;8.452;2023-02-15T20:19:43;1.68;99.99
13496;DHT22;6820;49.374;8.452;2023-02-15T20:23:46;1.64;99.99
13496;DHT22;6820;49.374;8.452;2023-02-15T20:27:48;1.57;99.99
13496;DHT22;6820;49.374;8.452;2023-02-15T20:31:49;1.61;99.99
13496;DHT22;6820;49.374;8.452;2023-02-15T20:35:55;1.54;99.99
13496;DHT22;6820;49.374;8.452;2023-02-15T20:39:58;1.44;99.99
13496;DHT22;6820;49.374;8.452;2023-02-15T20:44:00;1.43;99.99
13496;DHT22;6820;49.374;8.452;2023-02-15T20:48:09;1.39;99.99
13496;DHT22;6820;49.374;8.452;2023-02-15T20:52:16;1.38;99.99
13496;DHT22;6820;49.374;8.452;2023-02-15T20:56:21;1.36;99.99
13496;DHT22;6820;49.374;8.452;2023-02-15T21:00:25;1.38;99.99
13496;DHT22;6820;49.374;8.452;2023-02-15T21:04:30;1.38;99.99
13496;DHT22;6820;49.374;8.452;2023-02-15T21:08:32;1.39;99.99
13496;DHT22;6820;49.374;8.452;2023-02-15T21:12:35;1.34;99.99
13496;DHT22;6820;49.374;8.452;2023-02-15T21:16:37;1.44;99.99
13496;DHT22;6820;49.374;8.452;2023-02-15T21:20:39;1.35;99.99
13496;DHT22;6820;49.374;8.452;2023-02-15T21:24:49;1.25;99.99
13496;DHT22;6820;49.374;8.452;2023-02-15T21:28:52;1.26;99.99
13496;DHT22;6820;49.374;8.452;2023-02-15T21:32:55;1.17;99.99
13496;DHT22;6820;49.374;8.452;2023-02-15T21:36:57;1.18;99.99
13496;DHT22;6820;49.374;8.452;2023-02-15T21:40:59;1.14;99.99
13496;DHT22;6820;49.374;8.452;2023-02-15T21:45:20;1.10;99.99
13496;DHT22;6820;49.374;8.452;2023-02-15T21:49:41;1.10;99.99
13496;DHT22;6820;49.374;8.452;2023-02-15T21:53:43;0.98;99.99
13496;DHT22;6820;49.374;8.452;2023-02-15T21:57:46;0.95;99.99
13496;DHT22;6820;49.374;8.452;2023-02-15T22:01:48;0.95;99.99
13496;DHT22;6820;49.374;8.452;2023-02-15T22:05:51;0.93;99.99
13496;DHT22;6820;49.374;8.452;2023-02-15T22:09:52;1.00;99.99
13496;DHT22;6820;49.374;8.452;2023-02-15T22:13:54;1.06;99.99
13496;DHT22;6820;49.374;8.452;2023-02-15T22:17:56;1.06;99.99
13496;DHT22;6820;49.374;8.452;2023-02-15T22:21:58;0.99;99.99
13496;DHT22;6820;49.374;8.452;2023-02-15T22:26:33;0.96;99.99
13496;DHT22;6820;49.374;8.452;2023-02-15T22:30:29;1.00;99.99
13496;DHT22;6820;49.374;8.452;2023-02-15T22:34:32;0.93;99.99
13496;DHT22;6820;49.374;8.452;2023-02-15T22:38:34;0.95;99.99
13496;DHT22;6820;49.374;8.452;2023-02-15T22:42:36;0.84;99.99
13496;DHT22;6820;49.374;8.452;2023-02-15T22:46:39;0.90;99.99
13496;DHT22;6820;49.374;8.452;2023-02-15T22:50:41;0.96;99.99
13496;DHT22;6820;49.374;8.452;2023-02-15T22:54:42;0.99;99.99
13496;DHT22;6820;49.374;8.452;2023-02-15T22:58:44;1.02;99.99
13496;DHT22;6820;49.374;8.452;2023-02-15T23:02:50;0.95;99.99
13496;DHT22;6820;49.374;8.452;2023-02-15T23:06:52;1.02;99.99
13496;DHT22;6820;49.374;8.452;2023-02-15T23:10:55;1.06;99.99
13496;DHT22;6820;49.374;8.452;2023-02-15T23:14:57;0.98;99.99
13496;DHT22;6820;49.374;8.452;2023-02-15T23:18:59;1.02;99.99
13496;DHT22;6820;49.374;8.452;2023-02-15T23:23:01;1.00;99.99
13496;DHT22;6820;49.374;8.452;2023-02-15T23:27:02;0.99;99.99
13496;DHT22;6820;49.374;8.452;2023-02-15T23:31:23;1.08;99.99
13496;DHT22;6820;49.374;8.452;2023-02-15T23:35:28;1.04;99.99
13496;DHT22;6820;49.374;8.452;2023-02-15T23:39:29;1.02;99.99
13496;DHT22;6820;49.374;8.452;2023-02-15T23:43:54;1.07;99.99
13496;DHT22;6820;49.374;8.452;2023-02-15T23:47:58;1.07;99.99
13496;DHT22;6820;49.374;8.452;2023-02-15T23:52:18;1.07;99.99
13496;DHT22;6820;49.374;8.452;2023-02-15T23:56:19;1.02;99.99
